Time;durP1;ratioP1;P1;durP2;ratioP2;P2;SDS_P1;SDS_P2;PMS_P1;PMS_P2;Temp;Humidity;BMP_temperature;BMP_pressure;BME280_temperature;BME280_humidity;BME280_pressure;Samples;Min_cycle;Max_cycle;Signal;HPM_P1;HPM_P2
2022/08/23 00:01:25;;;;;;;8.18;2.70;;;;;;;18.42;94.92;99773.09;4964215;28;20054;-85
2022/08/23 00:03:52;;;;;;;6.13;2.60;;;;;;;18.47;95.13;99782.13;4994430;28;20034;-85
2022/08/23 00:06:20;;;;;;;4.95;2.70;;;;;;;18.46;95.21;99779.66;5019804;28;20046;-85
2022/08/23 00:08:47;;;;;;;7.05;3.28;;;;;;;18.46;95.39;99776.97;4987912;28;20061;-84
2022/08/23 00:11:36;;;;;;;7.70;3.00;;;;;;;18.46;95.06;99771.63;4989365;28;20042;-84
2022/08/23 00:14:10;;;;;;;8.38;2.67;;;;;;;18.45;95.62;99772.66;4996119;28;20145;-85
2022/08/23 00:16:36;;;;;;;11.38;3.03;;;;;;;18.45;95.89;99773.50;4996581;28;20089;-84
2022/08/23 00:19:06;;;;;;;7.82;2.95;;;;;;;18.47;95.84;99773.28;4998455;28;20031;-85
2022/08/23 00:21:32;;;;;;;9.40;3.10;;;;;;;18.51;95.77;99763.78;4950239;28;20133;-84
2022/08/23 00:23:58;;;;;;;5.82;2.40;;;;;;;18.52;95.67;99761.94;5001645;28;20883;-85
2022/08/23 00:26:24;;;;;;;6.80;2.97;;;;;;;18.55;95.62;99772.22;4985168;28;20046;-83
2022/08/23 00:28:50;;;;;;;9.18;3.17;;;;;;;18.56;95.69;99777.34;4951251;28;20546;-83
2022/08/23 00:31:18;;;;;;;12.20;2.97;;;;;;;18.55;95.37;99769.53;4996073;28;20481;-83
2022/08/23 00:33:44;;;;;;;4.60;2.47;;;;;;;18.56;95.29;99779.19;4977817;28;20046;-86
2022/08/23 00:36:10;;;;;;;6.25;2.78;;;;;;;18.52;95.35;99764.63;5001854;28;20034;-84
2022/08/23 00:38:35;;;;;;;8.00;3.08;;;;;;;18.55;95.57;99772.22;5002559;28;20062;-83
2022/08/23 00:41:03;;;;;;;15.52;3.20;;;;;;;18.55;95.26;99770.38;5000392;28;20042;-85
2022/08/23 00:49:25;;;;;;;5.35;3.08;;;;;;;18.45;95.08;99760.13;4976277;28;20593;-84
2022/08/23 00:52:06;;;;;;;5.10;2.50;;;;;;;18.42;94.94;99754.38;5008649;28;20117;-79
2022/08/23 00:54:35;;;;;;;4.53;2.47;;;;;;;18.32;95.06;99747.63;5001375;28;20035;-77
2022/08/23 00:57:06;;;;;;;8.65;2.50;;;;;;;18.26;95.47;99750.31;4990239;28;20142;-79
2022/08/23 00:59:33;;;;;;;4.65;2.08;;;;;;;18.20;95.71;99752.00;4987903;28;20038;-79
2022/08/23 01:01:59;;;;;;;6.70;1.75;;;;;;;18.21;95.74;99753.63;5005872;28;20404;-84
2022/08/23 01:04:30;;;;;;;9.38;2.30;;;;;;;18.23;95.67;99760.41;4991493;28;20118;-85
2022/08/23 01:07:11;;;;;;;5.70;2.45;;;;;;;18.26;95.25;99769.03;5003597;28;20062;-85
2022/08/23 01:09:40;;;;;;;3.35;2.20;;;;;;;18.26;95.28;99774.41;4986062;28;20165;-85
2022/08/23 01:12:38;;;;;;;6.20;1.80;;;;;;;18.22;94.77;99772.16;4989218;28;20092;-81
2022/08/23 01:15:17;;;;;;;6.05;2.40;;;;;;;18.22;94.98;99772.16;4960990;28;20047;-78
2022/08/23 01:17:49;;;;;;;7.03;2.17;;;;;;;18.18;94.89;99770.94;4973505;28;20405;-79
2022/08/23 01:20:20;;;;;;;5.75;2.78;;;;;;;18.17;94.74;99773.81;5001955;28;20389;-86
2022/08/23 01:23:01;;;;;;;4.28;1.90;;;;;;;18.12;94.52;99766.44;4994140;28;20030;-80
2022/08/23 01:25:31;;;;;;;6.40;2.05;;;;;;;18.08;94.50;99771.34;4990245;28;20050;-84
2022/08/23 01:27:58;;;;;;;4.60;2.20;;;;;;;18.05;94.61;99763.75;4979465;28;20043;-83
2022/08/23 01:30:27;;;;;;;4.57;2.05;;;;;;;18.02;94.10;99764.16;4999920;28;20133;-82
2022/08/23 01:32:57;;;;;;;4.95;1.98;;;;;;;17.95;94.10;99756.16;4991732;28;20497;-81
2022/08/23 01:35:48;;;;;;;4.47;2.28;;;;;;;17.91;94.17;99762.97;4981954;28;20038;-85
2022/08/23 01:38:15;;;;;;;5.18;1.83;;;;;;;17.89;94.38;99767.69;4990722;28;20041;-86
2022/08/23 01:40:43;;;;;;;6.72;1.88;;;;;;;17.88;94.05;99778.59;4980125;28;20564;-82
2022/08/23 01:43:12;;;;;;;6.18;2.70;;;;;;;17.83;94.34;99780.06;5019681;28;20038;-85
2022/08/23 01:45:40;;;;;;;3.70;1.83;;;;;;;17.79;94.03;99773.47;4954393;28;20029;-86
2022/08/23 01:48:08;;;;;;;4.18;1.85;;;;;;;17.75;94.24;99787.47;4974906;28;20378;-87
2022/08/23 01:50:34;;;;;;;5.22;2.08;;;;;;;17.70;94.42;99783.56;4977097;28;20046;-83
2022/08/23 01:53:00;;;;;;;5.85;2.17;;;;;;;17.67;94.45;99783.16;4992890;28;20370;-82
2022/08/23 01:55:27;;;;;;;13.88;2.75;;;;;;;17.64;94.68;99778.22;4983477;28;20445;-84
2022/08/23 01:57:57;;;;;;;5.35;1.60;;;;;;;17.61;94.86;99782.16;4995540;28;20046;-84
2022/08/23 02:00:29;;;;;;;4.35;1.70;;;;;;;17.58;94.66;99779.91;4970212;28;20030;-84
2022/08/23 02:02:56;;;;;;;4.63;1.40;;;;;;;17.57;94.83;99778.22;5003346;28;20041;-85
2022/08/23 02:05:22;;;;;;;5.22;1.80;;;;;;;17.59;94.56;99778.84;4998104;28;20384;-86
2022/08/23 02:07:48;;;;;;;4.88;1.40;;;;;;;17.59;94.36;99771.69;4987328;28;20026;-83
2022/08/23 02:10:16;;;;;;;4.43;1.60;;;;;;;17.63;94.10;99779.28;5011424;28;20083;-83
2022/08/23 02:12:42;;;;;;;3.03;1.40;;;;;;;17.63;94.05;99776.59;4962238;28;20030;-84
2022/08/23 02:15:15;;;;;;;4.93;1.58;;;;;;;17.62;93.96;99778.44;5006377;28;20034;-81
2022/08/23 02:17:43;;;;;;;3.45;1.60;;;;;;;17.60;94.03;99767.97;5009854;28;20033;-85
2022/08/23 02:20:09;;;;;;;2.55;1.15;;;;;;;17.62;93.74;99765.09;4988084;28;20088;-84
2022/08/23 02:22:37;;;;;;;2.55;1.30;;;;;;;17.60;93.63;99767.97;4982143;28;20092;-83
2022/08/23 02:25:03;;;;;;;3.78;1.65;;;;;;;17.58;93.79;99771.88;5002810;28;20038;-83
2022/08/23 02:27:29;;;;;;;5.82;1.42;;;;;;;17.58;93.65;99775.34;5000323;28;20034;-83
2022/08/23 02:29:55;;;;;;;4.65;1.90;;;;;;;17.56;93.62;99763.25;4971446;28;20034;-86
2022/08/23 02:32:21;;;;;;;5.63;2.15;;;;;;;17.56;93.57;99760.56;4952701;28;20045;-84
2022/08/23 02:34:48;;;;;;;3.38;1.48;;;;;;;17.54;93.77;99768.78;5002919;28;20037;-84
2022/08/23 02:37:14;;;;;;;2.97;1.63;;;;;;;17.54;93.75;99767.97;4988462;28;20481;-83
2022/08/23 02:39:41;;;;;;;5.90;1.67;;;;;;;17.53;93.85;99769.84;5009514;28;20036;-83
2022/08/23 02:42:08;;;;;;;3.83;1.33;;;;;;;17.52;93.95;99772.72;4989362;28;20038;-79
2022/08/23 02:44:37;;;;;;;4.72;1.98;;;;;;;17.51;93.98;99773.72;4973259;28;20030;-80
2022/08/23 02:47:06;;;;;;;4.28;1.75;;;;;;;17.51;94.11;99769.22;4999697;28;20041;-84
2022/08/23 02:49:32;;;;;;;7.20;1.60;;;;;;;17.50;94.10;99774.75;4975685;28;20609;-84
2022/08/23 02:51:58;;;;;;;2.85;1.33;;;;;;;17.50;94.13;99772.91;5001965;28;20042;-86
2022/08/23 02:54:25;;;;;;;3.90;1.65;;;;;;;17.52;94.18;99764.69;5005059;28;20038;-85
2022/08/23 02:56:51;;;;;;;5.63;1.63;;;;;;;17.55;94.06;99767.75;5018402;28;20081;-85
2022/08/23 02:59:17;;;;;;;5.78;2.15;;;;;;;17.56;94.02;99769.41;5010438;28;20038;-85
2022/08/23 03:01:44;;;;;;;5.60;1.40;;;;;;;17.57;94.12;99772.88;4982225;28;20033;-84
2022/08/23 03:04:30;;;;;;;2.13;1.38;;;;;;;17.56;93.83;99766.75;5008119;28;20041;-83
2022/08/23 03:06:55;;;;;;;3.28;1.90;;;;;;;17.57;93.80;99767.53;5006859;28;20104;-83
2022/08/23 03:09:22;;;;;;;4.50;2.05;;;;;;;17.61;93.81;99774.13;5020047;28;20500;-84
2022/08/23 03:11:48;;;;;;;5.10;1.50;;;;;;;17.62;93.82;99767.75;4952399;28;20076;-83
2022/08/23 03:14:15;;;;;;;5.00;1.95;;;;;;;17.67;93.54;99767.97;5015147;28;20057;-83
2022/08/23 03:16:42;;;;;;;3.10;1.48;;;;;;;17.71;93.31;99765.69;4986905;28;20034;-83
2022/08/23 03:19:08;;;;;;;3.80;1.88;;;;;;;17.73;92.94;99771.63;4968558;28;20559;-85
2022/08/23 03:21:34;;;;;;;3.15;1.80;;;;;;;17.70;93.06;99775.56;5003958;28;20400;-85
2022/08/23 03:24:00;;;;;;;3.58;1.75;;;;;;;17.70;92.90;99772.88;4954166;28;20045;-82
2022/08/23 03:26:26;;;;;;;5.55;1.60;;;;;;;17.70;92.95;99780.06;4989737;28;20057;-84
2022/08/23 03:28:53;;;;;;;3.13;1.70;;;;;;;17.66;92.97;99771.63;5017617;28;20618;-84
2022/08/23 03:31:20;;;;;;;6.10;1.60;;;;;;;17.65;92.79;99772.69;5015021;28;20042;-84
2022/08/23 03:33:55;;;;;;;6.20;1.65;;;;;;;17.61;93.01;99776.81;4989155;28;20042;-84
2022/08/23 03:36:21;;;;;;;4.40;1.88;;;;;;;17.61;92.72;99780.28;4959010;28;20107;-86
2022/08/23 03:38:47;;;;;;;5.40;1.52;;;;;;;17.62;93.00;99775.78;5008229;28;20040;-84
2022/08/23 03:41:12;;;;;;;2.47;1.48;;;;;;;17.63;93.03;99781.94;5019453;28;20045;-85
2022/08/23 03:43:39;;;;;;;4.68;1.80;;;;;;;17.59;92.70;99777.03;5005066;28;20044;-85
2022/08/23 03:46:06;;;;;;;4.93;1.70;;;;;;;17.59;92.88;99790.38;4994807;28;20042;-82
2022/08/23 03:48:41;;;;;;;2.97;1.40;;;;;;;17.55;93.08;99788.34;4999466;28;20042;-84
2022/08/23 03:51:07;;;;;;;4.05;1.40;;;;;;;17.53;93.00;99779.69;4957172;28;20463;-84
2022/08/23 03:53:33;;;;;;;3.88;1.48;;;;;;;17.46;93.29;99775.19;4997596;28;20041;-84
2022/08/23 03:55:58;;;;;;;1.77;1.33;;;;;;;17.43;93.34;99780.94;4992283;28;20408;-86
2022/08/23 03:58:24;;;;;;;2.78;1.45;;;;;;;17.41;93.52;99785.66;4973411;28;20045;-86
2022/08/23 04:00:50;;;;;;;5.43;1.55;;;;;;;17.40;93.45;99783.19;5007971;28;20048;-86
2022/08/23 04:03:16;;;;;;;1.60;1.35;;;;;;;17.42;93.70;99789.97;5002926;28;20046;-84
2022/08/23 04:05:55;;;;;;;3.13;1.30;;;;;;;17.42;93.50;99779.31;4968318;28;20096;-83
2022/08/23 04:08:22;;;;;;;3.83;1.58;;;;;;;17.39;93.50;99774.34;4966684;28;20100;-84
2022/08/23 04:10:49;;;;;;;2.20;1.40;;;;;;;17.44;93.50;99785.22;4968590;28;20045;-84
2022/08/23 04:13:14;;;;;;;2.83;1.20;;;;;;;17.47;93.40;99784.81;4969572;28;20038;-84
2022/08/23 04:15:40;;;;;;;1.30;1.20;;;;;;;17.47;93.37;99778.69;5000941;28;20182;-85
2022/08/23 04:18:06;;;;;;;2.58;1.02;;;;;;;17.48;92.93;99780.31;5006737;28;20096;-83
2022/08/23 04:20:32;;;;;;;2.33;1.33;;;;;;;17.47;92.57;99787.50;4964385;28;20034;-84
2022/08/23 04:23:02;;;;;;;6.70;1.48;;;;;;;17.49;92.58;99787.28;4968587;28;20512;-83
2022/08/23 04:25:32;;;;;;;2.20;1.30;;;;;;;17.46;92.28;99777.84;4967863;28;20034;-83
2022/08/23 04:27:58;;;;;;;4.22;1.20;;;;;;;17.46;92.48;99783.19;5011265;28;20038;-83
2022/08/23 04:30:24;;;;;;;2.78;1.77;;;;;;;17.40;92.06;99783.19;4985267;28;20037;-83
2022/08/23 04:32:51;;;;;;;4.07;1.35;;;;;;;17.41;91.93;99785.66;4972702;28;20045;-84
2022/08/23 04:35:16;;;;;;;2.10;1.10;;;;;;;17.40;91.85;99783.19;5002394;28;20511;-83
2022/08/23 04:37:43;;;;;;;2.47;1.33;;;;;;;17.40;91.96;99776.00;4980063;28;20030;-83
2022/08/23 04:42:55;;;;;;;3.08;1.40;;;;;;;17.38;91.80;99774.53;4987085;28;21990;-83
2022/08/23 04:45:22;;;;;;;3.70;1.30;;;;;;;17.39;91.47;99778.88;5002174;28;20034;-84
2022/08/23 04:47:51;;;;;;;4.78;1.33;;;;;;;17.38;91.34;99787.91;5019405;28;20550;-84
2022/08/23 04:50:17;;;;;;;2.30;1.25;;;;;;;17.38;91.35;99786.06;5013556;28;20029;-83
2022/08/23 04:53:22;;;;;;;2.25;1.23;;;;;;;17.35;91.31;99791.81;5001825;28;20048;-82
2022/08/23 04:56:01;;;;;;;2.05;1.15;;;;;;;17.36;91.06;99796.13;4955012;28;20053;-83
2022/08/23 04:58:29;;;;;;;1.77;1.23;;;;;;;17.33;90.99;99799.19;4956678;28;20120;-83
2022/08/23 05:00:58;;;;;;;1.92;1.08;;;;;;;17.33;90.76;99800.03;4961651;28;20061;-83
2022/08/23 05:03:28;;;;;;;1.98;1.17;;;;;;;17.29;90.76;99806.00;4979500;28;20092;-84
2022/08/23 05:05:56;;;;;;;2.00;1.33;;;;;;;17.24;90.65;99795.94;4988399;28;20128;-83
2022/08/23 05:08:27;;;;;;;2.97;1.10;;;;;;;17.20;90.75;99795.50;4995398;28;20587;-83
2022/08/23 05:10:53;;;;;;;2.28;1.10;;;;;;;17.15;90.58;99800.66;4975383;28;20041;-83
2022/08/23 05:13:21;;;;;;;2.10;1.42;;;;;;;17.09;90.49;99812.97;4988749;28;20038;-81
2022/08/23 05:15:49;;;;;;;2.03;1.40;;;;;;;17.11;90.60;99818.94;4933987;28;20041;-82
2022/08/23 05:18:15;;;;;;;2.00;1.20;;;;;;;17.11;90.49;99816.25;4982429;28;20084;-84
2022/08/23 05:20:41;;;;;;;4.05;1.30;;;;;;;17.10;90.25;99822.59;4988993;28;20432;-83
2022/08/23 05:23:07;;;;;;;2.25;1.33;;;;;;;17.09;90.51;99822.81;4946495;28;20042;-86
2022/08/23 05:25:49;;;;;;;1.48;1.30;;;;;;;17.06;90.66;99817.84;5005269;28;20121;-81
2022/08/23 05:28:22;;;;;;;2.13;1.30;;;;;;;17.06;90.60;99825.84;4965397;28;20026;-82
2022/08/23 05:30:54;;;;;;;5.40;1.42;;;;;;;17.04;90.67;99823.38;4987362;28;20396;-82
2022/08/23 05:33:21;;;;;;;5.13;1.20;;;;;;;17.03;90.90;99819.06;5003562;28;20038;-83
2022/08/23 05:35:47;;;;;;;2.13;1.35;;;;;;;17.04;91.13;99826.06;5003246;28;20083;-82
2022/08/23 05:38:13;;;;;;;4.13;1.50;;;;;;;17.01;91.50;99831.81;4979267;28;20392;-83
2022/08/23 05:40:39;;;;;;;3.80;1.27;;;;;;;17.01;91.49;99831.00;5008276;28;20025;-82
2022/08/23 05:43:09;;;;;;;2.65;1.50;;;;;;;17.02;91.76;99835.31;4977795;28;20034;-83
2022/08/23 05:45:35;;;;;;;1.90;1.23;;;;;;;16.99;92.17;99845.34;5013376;28;20396;-81
2022/08/23 05:48:01;;;;;;;2.33;1.40;;;;;;;16.98;92.14;99850.88;4983666;28;20026;-83
2022/08/23 05:50:38;;;;;;;2.00;1.20;;;;;;;16.94;92.27;99847.81;4987346;28;20046;-83
2022/08/23 05:53:07;;;;;;;3.17;1.20;;;;;;;16.92;92.15;99843.69;4983216;28;20112;-83
2022/08/23 05:55:32;;;;;;;1.92;1.20;;;;;;;16.91;92.38;99853.56;5008142;28;20036;-84
2022/08/23 05:58:15;;;;;;;1.55;1.13;;;;;;;16.88;92.44;99853.13;4965994;28;20484;-82
2022/08/23 06:00:41;;;;;;;5.53;2.40;;;;;;;16.91;92.36;99856.22;5012727;28;20026;-83
2022/08/23 06:03:09;;;;;;;5.40;1.20;;;;;;;16.93;92.21;99862.16;4969946;28;20037;-82
2022/08/23 06:05:39;;;;;;;3.75;1.20;;;;;;;16.96;91.88;99859.09;5010361;28;20034;-83
2022/08/23 06:08:05;;;;;;;6.68;1.15;;;;;;;16.92;91.84;99862.38;5005549;28;20041;-84
2022/08/23 06:10:31;;;;;;;1.65;1.33;;;;;;;16.92;91.94;99859.72;4991940;28;20038;-81
2022/08/23 06:13:04;;;;;;;3.00;1.08;;;;;;;16.92;91.98;99857.88;4992878;28;20038;-83
2022/08/23 06:15:31;;;;;;;1.38;0.93;;;;;;;16.94;91.75;99858.50;4981229;28;20034;-82
2022/08/23 06:17:57;;;;;;;2.92;0.90;;;;;;;16.94;91.32;99858.50;4996037;28;20113;-81
2022/08/23 06:20:23;;;;;;;3.00;1.00;;;;;;;16.95;91.40;99867.31;5000243;28;20132;-81
2022/08/23 06:22:56;;;;;;;2.67;0.70;;;;;;;16.97;91.45;99868.78;5005462;28;20427;-82
2022/08/23 06:25:21;;;;;;;3.80;1.10;;;;;;;16.99;91.05;99861.38;4987812;28;20113;-81
2022/08/23 06:28:06;;;;;;;3.08;0.90;;;;;;;17.03;91.14;99868.97;4956451;28;20046;-82
2022/08/23 06:30:31;;;;;;;1.40;0.60;;;;;;;17.07;91.28;99871.03;5010030;28;20026;-82
2022/08/23 06:33:00;;;;;;;2.13;0.95;;;;;;;17.13;91.33;99876.63;4984408;28;20046;-81
2022/08/23 06:35:31;;;;;;;4.90;1.02;;;;;;;17.15;91.53;99875.44;4982252;28;20026;-82
2022/08/23 06:38:17;;;;;;;3.95;0.90;;;;;;;17.18;91.47;99877.69;4971780;28;20042;-82
2022/08/23 06:40:50;;;;;;;4.03;1.00;;;;;;;17.19;91.49;99882.00;4963739;28;20030;-82
2022/08/23 06:43:38;;;;;;;4.13;1.00;;;;;;;17.18;91.42;99882.19;5009537;28;20030;-82
2022/08/23 06:46:27;;;;;;;2.85;0.90;;;;;;;17.19;91.70;99882.00;4995258;28;20077;-82
2022/08/23 06:48:55;;;;;;;3.17;0.63;;;;;;;17.22;91.56;99886.94;5011790;28;20101;-82
2022/08/23 06:51:30;;;;;;;2.30;0.82;;;;;;;17.24;91.55;99889.41;5006105;28;20061;-83
2022/08/23 06:54:06;;;;;;;5.80;1.02;;;;;;;17.25;91.82;99880.34;5002259;28;20533;-86
2022/08/23 06:56:42;;;;;;;4.25;0.90;;;;;;;17.23;91.80;99885.91;5002597;28;20100;-84
2022/08/23 06:59:15;;;;;;;2.05;0.85;;;;;;;17.21;92.05;99884.47;5000793;28;20045;-85
2022/08/23 07:02:11;;;;;;;1.05;0.70;;;;;;;17.18;91.95;99890.22;5010002;28;20117;-82
2022/08/23 07:04:55;;;;;;;2.70;0.60;;;;;;;17.16;92.03;99902.94;5003730;28;20439;-81
2022/08/23 07:07:40;;;;;;;3.60;0.60;;;;;;;17.18;91.93;99896.38;4986626;28;20133;-79
2022/08/23 07:10:06;;;;;;;0.65;0.43;;;;;;;17.18;91.73;99893.72;5001680;28;20040;-80
2022/08/23 07:12:37;;;;;;;2.13;0.80;;;;;;;17.18;91.51;99903.56;4992098;28;20068;-81
2022/08/23 07:15:03;;;;;;;1.60;0.60;;;;;;;17.15;91.78;99898.63;5020278;28;20042;-80
2022/08/23 07:17:29;;;;;;;2.58;0.60;;;;;;;17.19;91.60;99902.53;4977723;28;20401;-82
2022/08/23 07:19:55;;;;;;;3.53;0.75;;;;;;;17.17;91.58;99897.38;4985022;28;20038;-84
2022/08/23 07:22:23;;;;;;;2.10;0.50;;;;;;;17.20;91.31;99918.34;4986323;28;20049;-82
2022/08/23 07:24:49;;;;;;;1.95;0.47;;;;;;;17.22;91.31;99918.97;5008659;28;20547;-85
2022/08/23 07:27:15;;;;;;;1.30;0.45;;;;;;;17.21;90.93;99920.00;4983476;28;20045;-83
2022/08/23 07:29:49;;;;;;;2.33;0.50;;;;;;;17.21;90.50;99928.03;4996372;28;20045;-81
2022/08/23 07:32:15;;;;;;;2.42;0.40;;;;;;;17.21;90.52;99921.84;4995383;28;20421;-85
2022/08/23 07:34:41;;;;;;;1.95;0.55;;;;;;;17.24;90.40;99926.78;4991612;28;20193;-82
2022/08/23 07:37:07;;;;;;;3.80;0.57;;;;;;;17.29;90.15;99926.19;5009696;28;20499;-81
2022/08/23 07:39:33;;;;;;;2.47;0.60;;;;;;;17.39;90.35;99912.44;4990119;28;20491;-82
2022/08/23 07:42:03;;;;;;;2.55;0.50;;;;;;;17.56;89.66;99920.88;5000509;28;20042;-80
2022/08/23 07:44:29;;;;;;;3.15;0.73;;;;;;;17.66;89.04;99918.63;4974942;28;20087;-79
2022/08/23 07:46:55;;;;;;;2.83;0.52;;;;;;;17.67;88.88;99928.31;4997058;28;20590;-81
2022/08/23 07:49:22;;;;;;;2.75;0.68;;;;;;;17.67;88.67;99932.81;4967353;28;20038;-82
2022/08/23 07:51:50;;;;;;;1.73;0.38;;;;;;;17.64;88.11;99930.56;4968961;28;20041;-82
2022/08/23 07:54:20;;;;;;;2.15;0.30;;;;;;;17.63;87.87;99929.72;4967112;28;20030;-80
2022/08/23 07:57:04;;;;;;;1.20;0.20;;;;;;;17.59;87.10;99940.03;4975727;28;20154;-81
2022/08/23 07:59:48;;;;;;;2.38;0.30;;;;;;;17.64;87.08;99941.25;4990766;28;20416;-87
2022/08/23 08:02:37;;;;;;;2.83;0.35;;;;;;;17.69;86.55;99950.31;4990734;28;20053;-84
2022/08/23 08:05:04;;;;;;;2.22;0.40;;;;;;;17.72;86.22;99955.25;4958128;28;20481;-82
2022/08/23 08:07:30;;;;;;;2.30;0.40;;;;;;;17.78;86.05;99958.94;5002479;28;20047;-81
2022/08/23 08:09:58;;;;;;;1.55;0.38;;;;;;;17.79;85.31;99957.09;5006162;28;20575;-81
2022/08/23 08:12:27;;;;;;;4.55;0.82;;;;;;;17.79;85.08;99959.78;4997934;28;20034;-81
2022/08/23 08:14:55;;;;;;;2.75;0.50;;;;;;;17.82;84.85;99962.03;4983255;28;20092;-84
2022/08/23 08:17:25;;;;;;;1.98;0.20;;;;;;;17.82;84.45;99959.38;5005659;28;20032;-85
2022/08/23 08:19:57;;;;;;;1.20;0.30;;;;;;;17.86;84.22;99955.25;4986734;28;20038;-84
2022/08/23 08:22:52;;;;;;;1.55;0.20;;;;;;;17.92;83.77;99957.09;5000638;28;20100;-85
2022/08/23 08:25:34;;;;;;;2.20;0.32;;;;;;;18.00;83.06;99958.75;4977368;28;20038;-83
2022/08/23 08:28:04;;;;;;;2.58;0.77;;;;;;;18.07;82.50;99964.94;4966861;28;20026;-82
2022/08/23 08:30:30;;;;;;;1.50;0.30;;;;;;;18.08;82.41;99973.75;4992047;28;20030;-84
2022/08/23 08:32:56;;;;;;;2.60;0.30;;;;;;;18.01;81.63;99967.59;4989920;28;20060;-80
2022/08/23 08:35:23;;;;;;;3.88;0.40;;;;;;;18.00;81.73;99976.66;4990451;28;20488;-83
2022/08/23 08:37:49;;;;;;;1.75;0.32;;;;;;;17.90;81.51;99980.53;5011273;28;20026;-84
2022/08/23 08:40:23;;;;;;;0.65;0.30;;;;;;;17.83;81.70;99985.06;4965648;28;20037;-82
2022/08/23 08:43:07;;;;;;;2.55;1.17;;;;;;;17.81;81.90;99985.28;5003748;28;20045;-83
2022/08/23 08:45:48;;;;;;;3.90;0.20;;;;;;;17.83;81.93;99982.41;4977828;28;20026;-86
2022/08/23 08:48:21;;;;;;;2.90;0.40;;;;;;;17.87;82.14;99985.50;4970892;28;20523;-80
2022/08/23 08:51:02;;;;;;;1.23;0.17;;;;;;;17.77;82.04;99989.38;4976455;28;20041;-79
2022/08/23 08:53:35;;;;;;;1.77;0.40;;;;;;;17.72;82.38;99997.19;5003773;28;20034;-85
2022/08/23 08:56:32;;;;;;;3.70;0.40;;;;;;;17.61;82.65;99994.06;4987612;28;20130;-80
2022/08/23 08:59:30;;;;;;;1.75;0.40;;;;;;;17.48;83.26;100000.22;5000728;28;20100;-79
2022/08/23 09:01:57;;;;;;;1.40;0.40;;;;;;;17.42;83.99;100006.38;5020814;28;20034;-81
2022/08/23 09:04:31;;;;;;;2.33;0.45;;;;;;;17.38;84.13;100012.28;4996524;28;20133;-82
2022/08/23 09:07:11;;;;;;;2.65;0.40;;;;;;;17.34;84.49;100014.56;4981864;28;20050;-80
2022/08/23 09:10:01;;;;;;;5.35;0.40;;;;;;;17.29;84.69;100011.66;5009969;28;20046;-86
2022/08/23 09:12:36;;;;;;;2.45;0.38;;;;;;;17.30;84.80;100006.09;4955830;28;20050;-81
2022/08/23 09:15:05;;;;;;;4.75;0.63;;;;;;;17.32;85.04;100012.09;4970046;28;20092;-84
2022/08/23 09:17:42;;;;;;;2.75;0.40;;;;;;;17.37;84.82;100008.81;4991285;28;20127;-82
2022/08/23 09:20:12;;;;;;;0.60;0.28;;;;;;;17.40;84.62;100004.91;4979301;28;20042;-84
2022/08/23 09:22:45;;;;;;;2.25;0.50;;;;;;;17.46;84.27;100009.44;5002997;28;20563;-82
2022/08/23 09:25:21;;;;;;;2.95;0.65;;;;;;;17.48;84.28;100002.91;4987928;28;20036;-81
2022/08/23 09:27:57;;;;;;;2.28;0.22;;;;;;;17.55;83.78;100008.22;5004958;28;20366;-81
2022/08/23 09:30:48;;;;;;;4.13;0.50;;;;;;;17.56;83.14;100014.41;5005412;28;20100;-84
2022/08/23 09:33:17;;;;;;;2.25;0.38;;;;;;;17.64;83.55;100014.22;5001457;28;20038;-81
2022/08/23 09:36:00;;;;;;;1.05;0.25;;;;;;;17.75;83.17;100015.50;4990965;28;20034;-81
2022/08/23 09:38:28;;;;;;;2.70;0.93;;;;;;;17.80;82.84;100006.84;4972676;28;20041;-81
2022/08/23 09:40:59;;;;;;;7.88;4.43;;;;;;;17.93;82.77;100008.72;5003537;28;20038;-82
2022/08/23 09:43:27;;;;;;;10.48;6.93;;;;;;;18.05;82.45;100007.09;4990132;28;20041;-83
2022/08/23 09:45:58;;;;;;;9.02;5.75;;;;;;;18.25;82.00;100010.84;5011038;28;20117;-80
2022/08/23 09:48:41;;;;;;;5.55;3.00;;;;;;;18.33;81.28;100014.09;4973902;28;20056;-82
2022/08/23 09:51:30;;;;;;;7.63;3.15;;;;;;;18.37;80.79;100003.81;5022051;28;20046;-84
2022/08/23 09:54:02;;;;;;;4.07;0.68;;;;;;;18.43;80.56;100007.50;4975939;28;20095;-80
2022/08/23 09:56:31;;;;;;;4.97;0.50;;;;;;;18.60;80.45;100003.38;4993198;28;20042;-80
2022/08/23 09:58:58;;;;;;;2.15;0.40;;;;;;;18.85;79.63;99999.22;5001374;28;20034;-82
2022/08/23 10:01:37;;;;;;;4.63;0.40;;;;;;;19.01;78.81;99999.78;4978361;28;20095;-82
2022/08/23 10:04:24;;;;;;;3.37;0.43;;;;;;;19.04;77.54;99999.34;5001997;28;20492;-85
2022/08/23 10:06:51;;;;;;;1.88;0.40;;;;;;;19.13;76.74;99992.75;5012228;28;20134;-84
2022/08/23 10:09:30;;;;;;;3.45;0.47;;;;;;;19.21;76.23;99991.69;5003131;28;20033;-84
2022/08/23 10:11:59;;;;;;;3.15;0.40;;;;;;;19.19;75.88;99991.91;4983057;28;20038;-86
2022/08/23 10:14:27;;;;;;;3.30;0.35;;;;;;;19.18;75.27;99978.72;4977434;28;20077;-86
2022/08/23 10:17:13;;;;;;;6.03;1.10;;;;;;;19.17;74.05;99985.13;4994403;28;20030;-81
2022/08/23 10:19:42;;;;;;;;;;;;;;;18.79;72.41;99982.13;4977319;28;20483;-84
2022/08/23 10:22:25;;;;;;;0.80;0.20;;;;;;;18.68;74.72;99986.28;5016815;28;19917;-81
2022/08/23 10:25:16;;;;;;;0.90;0.30;;;;;;;18.61;75.01;99990.81;4980972;28;20112;-85
2022/08/23 10:31:09;;;;;;;2.03;0.25;;;;;;;18.34;73.83;99983.66;4988044;28;20056;-85
2022/08/23 10:34:15;;;;;;;3.38;0.57;;;;;;;18.34;73.05;99974.81;4995026;28;20065;-86
2022/08/23 10:37:13;;;;;;;1.75;0.40;;;;;;;18.41;73.52;99972.13;4903530;28;20148;-85
2022/08/23 10:39:47;;;;;;;3.08;0.32;;;;;;;18.65;73.16;99973.31;5008401;28;20033;-85
2022/08/23 10:42:32;;;;;;;1.38;0.25;;;;;;;18.87;71.80;99965.03;4991805;28;20030;-85
2022/08/23 10:45:15;;;;;;;2.00;0.47;;;;;;;19.04;71.29;99969.88;5010312;28;20488;-83
2022/08/23 10:48:10;;;;;;;3.72;0.50;;;;;;;19.13;70.45;99971.31;4994455;28;20072;-83
2022/08/23 10:51:04;;;;;;;3.28;0.32;;;;;;;18.99;70.31;99973.22;4969799;28;20559;-82
2022/08/23 10:53:45;;;;;;;2.67;0.30;;;;;;;19.11;70.55;99975.25;4973459;28;20050;-81
2022/08/23 10:56:20;;;;;;;2.30;0.30;;;;;;;19.31;69.81;99967.13;5016447;28;20476;-79
2022/08/23 10:58:56;;;;;;;1.25;0.30;;;;;;;19.52;68.93;99963.31;4987453;28;20030;-84
2022/08/23 11:01:44;;;;;;;4.68;0.70;;;;;;;19.67;68.28;99975.59;4988331;28;20034;-82
2022/08/23 11:04:37;;;;;;;3.25;0.40;;;;;;;19.70;67.34;99973.28;4960884;28;20046;-81
2022/08/23 11:07:41;;;;;;;4.13;0.90;;;;;;;19.87;67.14;99982.66;4993958;28;20073;-84
2022/08/23 11:10:31;;;;;;;2.72;0.35;;;;;;;20.02;66.51;99972.44;4993772;28;20030;-82
2022/08/23 11:13:19;;;;;;;4.72;0.55;;;;;;;20.25;65.87;99970.19;4994999;28;20042;-82
2022/08/23 11:15:54;;;;;;;1.98;0.30;;;;;;;20.37;64.60;99981.84;4988484;28;20625;-84
2022/08/23 11:18:38;;;;;;;2.88;0.47;;;;;;;20.54;63.62;99975.91;4990688;28;20030;-83
2022/08/23 11:21:27;;;;;;;2.17;0.40;;;;;;;20.78;62.18;99974.22;4959917;28;20045;-82
2022/08/23 11:23:58;;;;;;;1.65;0.40;;;;;;;20.90;62.30;99976.97;4963324;28;20053;-81
2022/08/23 11:26:26;;;;;;;2.47;0.40;;;;;;;20.79;61.78;99966.97;5005493;28;20053;-81
2022/08/23 11:28:54;;;;;;;1.45;0.40;;;;;;;20.78;61.54;99973.38;5009512;28;20037;-83
2022/08/23 11:31:33;;;;;;;2.83;0.57;;;;;;;20.69;60.12;99972.84;4998848;28;20034;-83
2022/08/23 11:34:01;;;;;;;1.42;0.40;;;;;;;20.69;61.20;99970.16;4993711;28;20038;-80
2022/08/23 11:36:29;;;;;;;8.95;0.50;;;;;;;20.82;60.85;99970.03;4983634;28;20124;-81
2022/08/23 11:38:55;;;;;;;3.22;0.40;;;;;;;20.93;59.79;99964.97;4986619;28;20575;-80
2022/08/23 11:41:28;;;;;;;1.38;0.30;;;;;;;21.07;59.42;99968.31;4983987;28;20409;-80
2022/08/23 11:43:54;;;;;;;0.80;0.20;;;;;;;21.23;59.50;99966.84;4996873;28;20037;-81
2022/08/23 11:46:26;;;;;;;0.90;0.20;;;;;;;21.30;58.68;99972.16;4963191;28;20050;-81
2022/08/23 11:49:14;;;;;;;5.05;0.38;;;;;;;21.21;58.15;99970.81;4969825;28;20471;-78
2022/08/23 11:51:59;;;;;;;2.05;0.40;;;;;;;21.12;57.85;99978.41;5004288;28;20042;-80
2022/08/23 11:54:38;;;;;;;2.03;0.43;;;;;;;20.97;59.05;99982.28;4958610;28;20066;-80
2022/08/23 11:57:24;;;;;;;4.65;0.63;;;;;;;20.75;59.18;99973.84;4965382;28;20077;-80
2022/08/23 11:59:52;;;;;;;;;;;;;;;20.47;59.38;99980.50;4972879;28;20034;-83
2022/08/23 12:02:31;;;;;;;6.00;0.30;;;;;;;20.56;59.59;99976.53;4996018;28;19914;-80
2022/08/23 12:05:00;;;;;;;1.52;0.30;;;;;;;20.56;59.69;99984.56;4978022;28;20045;-83
2022/08/23 12:07:50;;;;;;;1.70;0.30;;;;;;;20.38;58.71;99980.00;4966104;28;20054;-79
2022/08/23 12:10:41;;;;;;;1.23;0.40;;;;;;;20.31;59.31;99986.25;5002402;28;20496;-81